Wednesday, April 25, 2018, 1:09 AM EDT
Back to Local

KYNG, Youngstown-warren Reg Airprt

Location: Vienna, OH, United States Lat: 41.25
Local Time: 1:09 AM EDT ( 5:09 GMT) Lon: -80.667
Time Zone: US/Eastern Elev: 1197 ft

Show me the last for .
Show Coded

Time T Td Feel RH Dir Speed Gust Alt SLP Vis Weather Sky Remarks
2018-04-25 00:51 50 49 47 96 100° 8 - 29.92 29.93 10 -RA FEW006 BKN048 BKN070 OVC130 1-hr Precip Total: Trace
24-hr Min Temp (1am): 50.0°F
24-hr Max Temp (1am): 61.0°F
2018-04-25 00:40 50 49 47 96 100° 8 - 29.92 - 10 -RA FEW008 FEW025 OVC048 1-hr Precip Total: Trace
2018-04-24 23:51 50 49 47 96 100° 8 - 29.94 29.95 9 -RA FEW006 BKN025 OVC050 1-hr Precip Total: Trace
2018-04-24 23:29 50 49 46 96 100° 9 - 29.95 - 8 -RA SCT006 BKN025 OVC045 1-hr Precip Total: Trace
2018-04-24 22:51 50 49 47 96 110° 8 - 29.96 29.97 7 -RA SCT008 OVC030 1-hr Precip Total: 0.03"
6-hr Precip Total (11pm): 0.05"
2018-04-24 21:51 51 49 - 92 110° 14 - 29.98 29.98 6 -RA BR BKN006 OVC013 1-hr Precip Total: 0.01"
2018-04-24 21:43 51 49 - 92 110° 14 - 29.98 - 7 -RA BKN006 OVC013 1-hr Precip Total: 0.01"
2018-04-24 21:13 51 49 - 92 110° 12 - 29.98 - 6 -RA BR FEW008 BKN013 OVC050 1-hr Precip Total: 0.01"
2018-04-24 20:51 51 49 - 92 110° 10 - 29.99 29.99 8 -RA BKN009 OVC028 1-hr Precip Total: 0.01"
2018-04-24 19:51 51 49 - 92 110° 9 - 29.98 29.99 7 -RA BKN009 OVC022 1-hr Precip Total: 0.03"
6-hr Precip Total (8pm): 0.16"
6-hr Min Temp (8pm): 51.1°F
6-hr Max Temp (8pm): 52.0°F
2018-04-24 19:25 51 49 - 92 110° 10 - 29.99 - 7 -RA BKN012 OVC025 1-hr Precip Total: 0.02"
2018-04-24 18:51 52 49 - 89 110° 13 - 30.00 30.00 9 -RA SCT010 BKN016 OVC050 1-hr Precip Total: 0.01"
2018-04-24 17:51 52 50 - 92 110° 13 - 30.01 30.01 8 -RA BKN010 OVC018 1-hr Precip Total: 0.02"
2018-04-24 16:51 52 50 - 92 110° 13 - 30.02 30.02 8 -RA SCT008 BKN014 OVC060 1-hr Precip Total: 0.01"
6-hr Precip Total (5pm): 0.10"
2018-04-24 15:51 52 49 - 89 110° 14 - 30.04 30.04 6 -RA BR BKN008 OVC028 1-hr Precip Total: 0.03"
2018-04-24 14:51 51 49 - 92 110° 14 - 30.06 30.07 4 -RA BR BKN009 OVC019 1-hr Precip Total: 0.06"
2018-04-24 14:37 51 49 - 92 110° 14 - 30.07 - 4 -RA BR BKN009 OVC019 1-hr Precip Total: 0.05"
2018-04-24 13:51 51 49 - 92 110° 13 20 30.08 30.08 4 -RA BR BKN010 OVC048 1-hr Precip Total: 0.03"
6-hr Precip Total (2pm): 0.05"
6-hr Min Temp (2pm): 51.1°F
6-hr Max Temp (2pm): 54.0°F
2018-04-24 13:22 51 48 - 89 110° 12 - 30.09 - 4 -RA BR BKN010 BKN024 OVC048 1-hr Precip Total: 0.01"
2018-04-24 12:51 51 47 - 85 100° 16 - 30.10 30.10 5 -RA BR BKN017 OVC046 1-hr Precip Total: 0.02"
2018-04-24 11:51 52 45 - 76 110° 14 - 30.12 30.12 8 -RA FEW025 BKN038 OVC047 1-hr Precip Total: Trace
2018-04-24 10:51 53 42 - 66 110° 15 23 30.14 30.14 10 OVC042 None
2018-04-24 09:51 54 39 - 56 120° 14 21 30.15 30.15 10 BKN044 OVC090 None
2018-04-24 08:51 53 41 - 63 110° 14 - 30.16 30.16 10 FEW047 BKN095 OVC120 None
2018-04-24 07:51 53 42 - 66 110° 15 - 30.16 30.16 10 BKN065 BKN090 OVC120 1-hr Precip Total: Trace
6-hr Precip Total (8am): 0.00"
6-hr Min Temp (8am): 52.0°F
6-hr Max Temp (8am): 57.9°F
2018-04-24 06:51 52 42 - 68 110° 10 - 30.16 30.16 10 OVC060 1-hr Precip Total: Trace
2018-04-24 05:51 52 45 - 76 120° 10 - 30.16 30.16 10 OVC060 1-hr Precip Total: Trace
2018-04-24 04:51 53 45 - 73 110° 9 - 30.17 30.16 10 -RA OVC055 1-hr Precip Total: Trace
6-hr Precip Total (5am): 0.00"
2018-04-24 03:51 55 46 - 71 140° 9 - 30.18 30.17 10 -RA FEW047 SCT065 OVC085 1-hr Precip Total: Trace
2018-04-24 02:51 56 45 - 66 110° 8 - 30.17 30.16 10 FEW065 BKN080 OVC120 1-hr Precip Total: Trace
2018-04-24 01:51 58 39 - 49 190° 3 - 30.18 30.17 10 -RA OVC080 1-hr Precip Total: Trace
6-hr Precip Total (2am): 0.00"
6-hr Min Temp (2am): 57.9°F
6-hr Max Temp (2am): 66.9°F

Support USWX by starting your Amazon purchase here.